Terminal Aerodrome Forecast
Issued by NWS Wilmington, OH

Home | Current Version | Previous Version | Text Only | Print | Product List | Glossary On
Versions: 1 2 3 4 5 6 7 8 9 10 11 12 13 14 15 16 17 18 19 20 21 22 23 24 25 26 27 28 29 30 31 32 33 34 35 36 37 38 39 40 41 42 43 44 45 46 47 48 49 50
000
FTUS41 KILN 181132
TAFDAY
TAF
KDAY 181132Z 1812/1912 23005KT 3SM BR SCT003 BKN025
      TEMPO 1812/1815 4SM BR BKN005
     FM181500 18005KT P6SM VCSH BKN020
     FM182100 19005KT P6SM BKN025
     FM190200 00000KT 5SM BR SCT060
     FM190600 00000KT 3SM BR BKN025=

USA.gov is the U.S. government's official web portal to all federal, state and local government web resources and services.